Gabbs, NV (89409)

4:42 AM PDT on August 04, 2015 (GMT -0700)
Fallon Naval Air Station | | Change Station
CLOSE
Current Station
Airport
Location: Fallon NAS,
Elevation: 3934 ft
Nearby Weather Stations

Elev 3934 ft 39.42 °N, 118.70 °W | Updated 46 minutes ago

Clear
Clear
59 °F
Feels Like 59 °F
N
5
Wind Variable Wind from South

Today
High -- | Low -- °F
--% Chance of Precip.
Yesterday
High -- | Low -- °F
Precip. -- in
5:55 AM 7:59 PM
Waning Gibbous, 78% visible
Pressure 29.94 in
Visibility 10.0 miles
Clouds Clear
Dew Point 36 °F
Humidity 42%
Rainfall 0.00 in
Snow Depth Not available.
UV 0 out of 12
Pollen 6.30 out of 12
Air Quality Not available.
Flu Activity Not available.
METAR KNFL 041056Z AUTO 19004KT 10SM CLR 15/02 A3003 RMK AO2 SLP137 T01500022

More Conditions Fewer Conditions

Pressure 29.94 in
Visibility 10.0 miles
Clouds Clear
Dew Point 36 °F
Humidity 42%
Rainfall 0.00 in
Snow Depth Not available.
UV 0 out of 12
Pollen 6.30 out of 12
Air Quality Not available.
Flu Activity Not available.
METAR KNFL 041056Z AUTO 19004KT 10SM CLR 15/02 A3003 RMK AO2 SLP137 T01500022

More Conditions Fewer Conditions

10-Day Weather Forecast

×

Almanac

Astronomy

Aug. 04, 2015 Rise Set
Actual Time
Civil Twilight
Nautical Twilight
Astronomical Twilight
Moon
Length of Visible Light
Length of Day
Tomorrow will be .
, % of the Moon is Illuminated

Today's Extremes

State Highs State Lows

Community

WunderPhotos

Upload Photos

1,843,900 photos uploaded!

WunderBlogs® & News

Nearby

Air Quality

  Air Quality AQ Index Pollutant
Not available.

Snow Depth

Station Depth Elevation

Earthquake Activity

City Distance Mag. Time & Date
Minimum magnitude displayed is 2.5.

Coastal Water Temperatures

Place Temperature

Stations

Nearby Weather Stations

Station Location Temp. Windchill Dew Point Humidity Wind Precip. Elev Updated Type